Meadow, South Dakota
Current Conditions -  °F | °C
As of 12:53 AM on Sunday 26 Oct 2014 (Local Time) from KHEI Reporting Station
Clear Clear  
Wind Chill: 44°   Ceiling: Unl
Heat Index: 49°   Visibility: 10mi
Dew Point: 31°   Wind: 13mph
Humidity: 50%   Direction: 110°ESE
Pressure: 29.75"   Gusts: NA
Location:  45.53°N, 102.22°W
Report Text: KHEI 260653Z AUTO 11011KT 10SM CLR 09/M01 A2975 RMK AO2 SLP071 T00941006 401831028
Loading
Personal Weather Stations






























Interactive Weather Map
Tropical Storm Tracking
New forecast layout! Learn more

10-Day Weather Forecast

Advertisements
Track Severe Weather on mobile